createdAt,value
2018-01-13T00:00:05.662Z,54.50
2018-01-13T00:02:33.660Z,54.60
2018-01-13T00:05:01.706Z,54.60
2018-01-13T00:07:29.753Z,54.60
2018-01-13T00:09:57.754Z,54.60
2018-01-13T00:12:25.797Z,54.70
2018-01-13T00:14:53.822Z,54.70
2018-01-13T00:17:21.829Z,54.70
2018-01-13T00:19:50.134Z,54.60
2018-01-13T00:22:18.154Z,54.70
2018-01-13T00:24:46.921Z,54.70
2018-01-13T00:27:14.972Z,54.70
2018-01-13T00:29:42.991Z,54.70
2018-01-13T00:32:11.766Z,54.70
2018-01-13T00:34:39.794Z,54.70
2018-01-13T00:37:07.890Z,54.70
2018-01-13T00:39:35.890Z,54.70
2018-01-13T00:42:04.650Z,54.70
2018-01-13T00:44:32.671Z,54.70
2018-01-13T00:47:00.678Z,54.70
2018-01-13T00:49:28.675Z,54.70
2018-01-13T00:51:56.702Z,54.70
2018-01-13T00:54:24.682Z,54.70
2018-01-13T00:56:52.712Z,54.70
2018-01-13T00:59:20.718Z,54.70
2018-01-13T01:01:48.743Z,54.70
2018-01-13T01:04:17.491Z,54.70
2018-01-13T01:06:45.506Z,54.60
2018-01-13T01:09:13.558Z,54.60
2018-01-13T01:11:42.314Z,54.60
2018-01-13T01:14:11.055Z,54.60
2018-01-13T01:16:39.070Z,54.60
2018-01-13T01:19:07.101Z,54.50
2018-01-13T01:21:35.121Z,54.50
2018-01-13T01:24:03.151Z,54.70
2018-01-13T01:26:31.174Z,54.50
2018-01-13T01:28:59.936Z,54.50
2018-01-13T01:31:27.937Z,54.50
2018-01-13T01:33:56.786Z,54.40
2018-01-13T01:36:24.821Z,54.40
2018-01-13T01:38:52.882Z,54.40
2018-01-13T01:41:21.682Z,54.50
2018-01-13T01:43:49.701Z,54.50
2018-01-13T01:46:17.711Z,54.50
2018-01-13T01:48:45.734Z,54.50
2018-01-13T01:51:13.747Z,54.50
2018-01-13T01:53:42.558Z,54.50
2018-01-13T01:56:10.577Z,54.50
2018-01-13T01:58:38.574Z,54.50
2018-01-13T02:01:07.316Z,54.60
2018-01-13T02:03:35.344Z,54.60
2018-01-13T02:06:03.362Z,54.60
2018-01-13T02:08:31.433Z,54.60
2018-01-13T02:10:59.446Z,54.70
2018-01-13T02:13:27.449Z,54.70
2018-01-13T02:15:55.472Z,54.70
2018-01-13T02:18:24.250Z,54.80
2018-01-13T02:20:53.033Z,55.10
2018-01-13T02:23:21.099Z,54.80
2018-01-13T02:25:49.124Z,54.50
2018-01-13T02:28:17.129Z,54.80
2018-01-13T02:30:45.153Z,54.80
2018-01-13T02:33:13.145Z,54.90
2018-01-13T02:35:41.223Z,54.90
2018-01-13T02:38:09.225Z,54.90
2018-01-13T02:40:37.242Z,54.90
2018-01-13T02:43:05.258Z,54.90
2018-01-13T02:45:33.236Z,55.00
2018-01-13T02:48:01.282Z,54.90
2018-01-13T02:50:29.295Z,54.80
2018-01-13T02:52:58.073Z,55.00
2018-01-13T02:55:26.847Z,55.00
2018-01-13T02:57:54.902Z,55.10
2018-01-13T03:00:22.900Z,55.00
2018-01-13T03:02:51.702Z,55.00
2018-01-13T03:05:20.475Z,55.10
2018-01-13T03:07:49.290Z,55.10
2018-01-13T03:10:17.298Z,55.10
2018-01-13T03:12:45.309Z,55.10
2018-01-13T03:15:14.105Z,55.10
2018-01-13T03:17:42.889Z,55.20
2018-01-13T03:20:11.666Z,55.10
2018-01-13T03:22:40.430Z,55.20
2018-01-13T03:25:08.436Z,55.10
2018-01-13T03:27:37.207Z,55.20
2018-01-13T03:30:05.974Z,55.70
2018-01-13T03:32:33.982Z,55.10
2018-01-13T03:35:02.766Z,55.30
2018-01-13T03:37:31.550Z,55.30
2018-01-13T03:40:00.300Z,55.30
2018-01-13T03:42:29.098Z,55.30
2018-01-13T03:44:57.063Z,55.20
2018-01-13T03:47:25.093Z,55.30
2018-01-13T03:49:53.151Z,55.20
2018-01-13T03:52:21.173Z,55.30
2018-01-13T03:54:49.184Z,55.30
2018-01-13T03:57:17.201Z,55.40
2018-01-13T03:59:45.218Z,55.40
2018-01-13T04:02:14.031Z,55.40
2018-01-13T04:04:42.022Z,55.40
2018-01-13T04:07:10.042Z,55.40
2018-01-13T04:09:38.826Z,55.50
2018-01-13T04:12:07.617Z,55.50
2018-01-13T04:14:36.363Z,55.50
2018-01-13T04:17:05.186Z,56.10
2018-01-13T04:19:34.015Z,55.50
2018-01-13T04:22:01.986Z,55.50
2018-01-13T04:24:29.980Z,55.50
2018-01-13T04:26:57.987Z,55.50
2018-01-13T04:29:26.767Z,55.60
2018-01-13T04:31:55.583Z,55.60
2018-01-13T04:34:23.597Z,55.60
2018-01-13T04:36:51.639Z,55.60
2018-01-13T04:39:19.653Z,55.60
2018-01-13T04:41:47.698Z,55.60
2018-01-13T04:44:15.724Z,55.60
2018-01-13T04:46:44.498Z,55.60
2018-01-13T04:49:13.260Z,55.60
2018-01-13T04:51:41.265Z,55.70
2018-01-13T04:54:10.062Z,55.70
2018-01-13T04:56:38.042Z,55.70
2018-01-13T04:59:06.055Z,55.60
2018-01-13T05:01:34.094Z,55.70
2018-01-13T05:04:02.082Z,55.70
2018-01-13T05:06:30.095Z,55.70
2018-01-13T05:08:58.878Z,55.70
2018-01-13T05:11:27.685Z,55.70
2018-01-13T05:13:55.663Z,55.70
2018-01-13T05:16:23.667Z,55.70
2018-01-13T05:18:51.690Z,55.70
2018-01-13T05:21:19.710Z,55.70
2018-01-13T05:23:47.709Z,55.80
2018-01-13T05:26:16.494Z,55.80
2018-01-13T05:28:44.508Z,55.80
2018-01-13T05:31:12.485Z,55.60
2018-01-13T05:33:40.503Z,55.80
2018-01-13T05:36:08.530Z,55.80
2018-01-13T05:38:36.557Z,55.80
2018-01-13T05:41:05.353Z,55.80
2018-01-13T05:43:34.106Z,55.80
2018-01-13T05:46:02.102Z,55.90
2018-01-13T05:48:30.871Z,55.90
2018-01-13T05:50:58.871Z,55.90
2018-01-13T05:53:26.871Z,55.80
2018-01-13T05:55:54.880Z,56.00
2018-01-13T05:58:22.867Z,55.90
2018-01-13T06:00:51.682Z,55.90
2018-01-13T06:03:19.709Z,55.90
2018-01-13T06:05:47.719Z,55.90
2018-01-13T06:08:15.730Z,55.90
2018-01-13T06:10:44.523Z,56.00
2018-01-13T06:13:12.538Z,56.00
2018-01-13T06:15:40.522Z,56.00
2018-01-13T06:18:08.491Z,56.50
2018-01-13T06:20:36.487Z,56.00
2018-01-13T06:23:04.509Z,56.00
2018-01-13T06:25:33.267Z,56.00
2018-01-13T06:28:01.303Z,56.00
2018-01-13T06:30:29.312Z,56.00
2018-01-13T06:32:57.311Z,56.10
2018-01-13T06:35:25.357Z,56.10
2018-01-13T06:37:54.121Z,56.30
2018-01-13T06:40:22.893Z,56.10
2018-01-13T06:42:50.924Z,56.10
2018-01-13T06:45:18.953Z,56.10
2018-01-13T06:47:46.969Z,56.10
2018-01-13T06:50:14.958Z,56.10
2018-01-13T06:52:42.993Z,56.10
2018-01-13T06:55:11.769Z,56.20
2018-01-13T06:57:39.758Z,56.20
2018-01-13T07:00:08.551Z,56.20
2018-01-13T07:02:36.528Z,56.20
2018-01-13T07:05:04.538Z,56.20
2018-01-13T07:07:32.586Z,56.20
2018-01-13T07:10:00.635Z,56.20
2018-01-13T07:12:28.686Z,56.20
2018-01-13T07:14:57.493Z,56.30
2018-01-13T07:17:25.489Z,56.20
2018-01-13T07:19:53.513Z,56.20
2018-01-13T07:22:22.261Z,56.30
2018-01-13T07:24:51.011Z,56.30
2018-01-13T07:27:19.007Z,56.40
2018-01-13T07:29:47.013Z,56.30
2018-01-13T07:32:14.983Z,56.30
2018-01-13T07:34:42.982Z,56.40
2018-01-13T07:37:11.237Z,56.40
2018-01-13T07:39:40.009Z,56.40
2018-01-13T07:42:08.023Z,56.40
2018-01-13T07:44:36.030Z,56.40
2018-01-13T07:47:04.060Z,56.50
2018-01-13T07:49:32.039Z,56.40
2018-01-13T07:52:00.033Z,56.50
2018-01-13T07:54:28.006Z,56.50
2018-01-13T07:56:56.785Z,56.50
2018-01-13T07:59:24.789Z,56.50
2018-01-13T08:01:52.796Z,56.50
2018-01-13T08:04:20.814Z,56.50
2018-01-13T08:06:48.861Z,56.50
2018-01-13T08:09:17.674Z,57.10
2018-01-13T08:11:45.662Z,56.50
2018-01-13T08:14:14.421Z,56.50
2018-01-13T08:16:42.424Z,56.50
2018-01-13T08:19:11.195Z,56.50
2018-01-13T08:21:39.189Z,56.50
2018-01-13T08:24:07.258Z,56.50
2018-01-13T08:26:36.046Z,56.50
2018-01-13T08:29:04.819Z,56.50
2018-01-13T08:31:32.830Z,56.50
2018-01-13T08:34:00.857Z,56.60
2018-01-13T08:36:28.831Z,56.50
2018-01-13T08:38:57.610Z,57.20
2018-01-13T08:41:25.614Z,56.50
2018-01-13T08:43:53.626Z,56.10
2018-01-13T08:46:21.633Z,56.60
2018-01-13T08:48:50.443Z,56.70
2018-01-13T08:51:18.469Z,56.60
2018-01-13T08:53:46.478Z,56.60
2018-01-13T08:56:14.478Z,56.60
2018-01-13T08:58:42.556Z,56.60
2018-01-13T09:01:11.383Z,56.70
2018-01-13T09:03:39.451Z,56.70
2018-01-13T09:06:07.510Z,56.70
2018-01-13T09:08:35.614Z,56.70
2018-01-13T09:11:04.413Z,56.60
2018-01-13T09:13:32.421Z,56.70
2018-01-13T09:16:00.453Z,56.60
2018-01-13T09:18:28.426Z,56.70
2018-01-13T09:20:56.379Z,56.70
2018-01-13T09:23:25.209Z,56.80
2018-01-13T09:25:53.278Z,56.70
2018-01-13T09:28:21.278Z,56.70
2018-01-13T09:30:49.306Z,56.70
2018-01-13T09:33:17.327Z,57.40
2018-01-13T09:35:45.341Z,56.70
2018-01-13T09:38:13.331Z,56.90
2018-01-13T09:40:41.343Z,56.70
2018-01-13T09:43:10.137Z,56.80
2018-01-13T09:45:38.948Z,56.70
2018-01-13T09:48:06.973Z,56.70
2018-01-13T09:50:34.998Z,56.70
2018-01-13T09:53:03.039Z,56.70
2018-01-13T09:55:31.817Z,56.70
2018-01-13T09:58:00.617Z,56.80
2018-01-13T10:00:29.401Z,56.80
2018-01-13T10:02:58.142Z,56.80
2018-01-13T10:05:26.158Z,56.80
2018-01-13T10:07:54.972Z,56.80
2018-01-13T10:10:23.007Z,56.80
2018-01-13T10:12:51.850Z,56.80
2018-01-13T10:15:19.826Z,56.80
2018-01-13T10:17:47.899Z,56.90
2018-01-13T10:20:16.004Z,56.80
2018-01-13T10:22:43.978Z,56.80
2018-01-13T10:25:12.774Z,57.40
2018-01-13T10:27:41.590Z,56.90
2018-01-13T10:30:09.566Z,56.90
2018-01-13T10:32:37.585Z,56.90
2018-01-13T10:35:05.618Z,56.90
2018-01-13T10:37:33.627Z,57.00
2018-01-13T10:40:02.418Z,57.00
2018-01-13T10:42:31.193Z,57.40
2018-01-13T10:44:59.180Z,56.90
2018-01-13T10:47:27.955Z,57.00
2018-01-13T10:49:55.985Z,57.00
2018-01-13T10:52:23.963Z,57.00
2018-01-13T10:54:51.946Z,56.90
2018-01-13T10:57:19.970Z,56.90
2018-01-13T10:59:47.946Z,56.90
2018-01-13T11:02:15.958Z,56.90
2018-01-13T11:04:43.990Z,56.90
2018-01-13T11:07:12.023Z,56.90
2018-01-13T11:09:40.799Z,56.90
2018-01-13T11:12:08.868Z,56.90
2018-01-13T11:14:36.870Z,56.90
2018-01-13T11:17:04.891Z,56.90
2018-01-13T11:19:32.932Z,56.90
2018-01-13T11:22:00.938Z,56.90
2018-01-13T11:24:28.910Z,56.80
2018-01-13T11:26:56.895Z,56.80
2018-01-13T11:29:24.911Z,56.00
2018-01-13T11:31:52.924Z,56.40
2018-01-13T11:34:20.954Z,55.90
2018-01-13T11:36:48.967Z,55.90
2018-01-13T11:39:16.995Z,55.90
2018-01-13T11:41:45.026Z,55.90
2018-01-13T11:44:13.795Z,55.90
2018-01-13T11:46:41.825Z,55.90
2018-01-13T11:49:09.837Z,55.80
2018-01-13T11:51:37.871Z,55.90
2018-01-13T11:54:05.866Z,55.90
2018-01-13T11:56:33.952Z,55.90
2018-01-13T11:59:02.727Z,55.90
2018-01-13T12:01:30.783Z,55.80
2018-01-13T12:03:58.802Z,55.80
2018-01-13T12:06:26.811Z,55.80
2018-01-13T12:08:54.820Z,55.90
2018-01-13T12:11:23.583Z,55.90
2018-01-13T12:13:51.605Z,55.90
2018-01-13T12:16:19.662Z,56.00
2018-01-13T12:18:48.438Z,55.90
2018-01-13T12:21:17.222Z,55.90
2018-01-13T12:23:45.957Z,56.00
2018-01-13T12:26:13.953Z,55.90
2018-01-13T12:28:41.948Z,56.00
2018-01-13T12:31:10.754Z,56.50
2018-01-13T12:33:38.783Z,56.10
2018-01-13T12:36:06.822Z,56.10
2018-01-13T12:38:34.839Z,56.10
2018-01-13T12:41:02.933Z,56.10
2018-01-13T12:43:31.798Z,56.10
2018-01-13T12:45:59.826Z,56.10
2018-01-13T12:48:27.827Z,56.10
2018-01-13T12:50:55.838Z,56.10
2018-01-13T12:53:23.834Z,56.10
2018-01-13T12:55:51.849Z,56.20
2018-01-13T12:58:19.874Z,56.20
2018-01-13T13:00:47.882Z,56.30
2018-01-13T13:03:15.934Z,56.20
2018-01-13T13:05:43.982Z,56.20
2018-01-13T13:08:11.974Z,56.20
2018-01-13T13:10:39.998Z,56.20
2018-01-13T13:13:08.025Z,56.20
2018-01-13T13:15:36.809Z,56.30
2018-01-13T13:18:04.878Z,56.30
2018-01-13T13:20:32.886Z,56.30
2018-01-13T13:23:01.666Z,56.20
2018-01-13T13:25:30.471Z,56.30
2018-01-13T13:27:59.326Z,56.30
2018-01-13T13:30:27.365Z,56.30
2018-01-13T13:32:55.419Z,56.30
2018-01-13T13:35:23.422Z,56.30
2018-01-13T13:37:51.436Z,56.30
2018-01-13T13:40:20.231Z,56.30
2018-01-13T13:42:48.996Z,56.30
2018-01-13T13:45:17.038Z,56.30
2018-01-13T13:47:45.059Z,56.20
2018-01-13T13:50:13.882Z,56.90
2018-01-13T13:52:41.886Z,56.30
2018-01-13T13:55:09.887Z,56.30
2018-01-13T13:57:38.657Z,56.20
2018-01-13T14:00:08.487Z,56.30
2018-01-13T14:02:36.634Z,56.20
2018-01-13T14:05:04.669Z,56.10
2018-01-13T14:07:32.691Z,56.40
2018-01-13T14:10:01.448Z,56.00
2018-01-13T14:12:29.477Z,56.00
2018-01-13T14:14:58.028Z,56.00
2018-01-13T14:17:25.578Z,55.90
2018-01-13T14:19:53.579Z,55.90
2018-01-13T14:22:21.623Z,55.90
2018-01-13T14:24:50.433Z,55.80
2018-01-13T14:27:18.415Z,55.80
2018-01-13T14:29:46.426Z,55.70
2018-01-13T14:32:14.458Z,55.70
2018-01-13T14:34:42.451Z,55.60
2018-01-13T14:37:10.453Z,55.60
2018-01-13T14:39:38.459Z,55.60
2018-01-13T14:42:06.498Z,56.10
2018-01-13T14:44:34.506Z,55.60
2018-01-13T14:47:02.582Z,55.60
2018-01-13T14:49:30.622Z,55.60
2018-01-13T14:51:59.383Z,55.60
2018-01-13T14:54:27.393Z,55.50
2018-01-13T14:56:55.376Z,55.50
2018-01-13T14:59:23.417Z,55.40
2018-01-13T15:01:52.219Z,55.40
2018-01-13T15:04:20.198Z,55.40
2018-01-13T15:06:48.251Z,55.50
2018-01-13T15:09:17.045Z,55.40
2018-01-13T15:11:45.145Z,55.40
2018-01-13T15:14:13.147Z,55.40
2018-01-13T15:16:41.158Z,55.40
2018-01-13T15:19:09.193Z,55.40
2018-01-13T15:21:37.177Z,55.40
2018-01-13T15:24:05.955Z,55.50
2018-01-13T15:26:33.946Z,55.50
2018-01-13T15:29:01.944Z,55.50
2018-01-13T15:31:29.965Z,55.50
2018-01-13T15:33:58.751Z,55.50
2018-01-13T15:36:26.794Z,55.50
2018-01-13T15:38:54.818Z,55.50
2018-01-13T15:41:22.849Z,55.50
2018-01-13T15:43:50.885Z,55.50
2018-01-13T15:46:18.906Z,55.50
2018-01-13T15:48:47.680Z,56.20
2018-01-13T15:51:15.698Z,55.50
2018-01-13T15:53:43.751Z,55.50
2018-01-13T15:56:12.557Z,55.40
2018-01-13T15:58:40.574Z,55.40
2018-01-13T16:01:08.611Z,55.40
2018-01-13T16:03:36.599Z,55.50
2018-01-13T16:06:04.646Z,55.40
2018-01-13T16:08:32.662Z,55.40
2018-01-13T16:11:00.686Z,55.40
2018-01-13T16:13:28.725Z,55.40
2018-01-13T16:15:57.522Z,55.40
2018-01-13T16:18:25.539Z,55.40
2018-01-13T16:20:53.543Z,55.40
2018-01-13T16:23:22.342Z,55.40
2018-01-13T16:25:50.358Z,55.40
2018-01-13T16:28:18.378Z,55.30
2018-01-13T16:30:47.173Z,55.30
2018-01-13T16:33:15.176Z,55.30
2018-01-13T16:35:43.187Z,55.30
2018-01-13T16:38:11.194Z,55.30
2018-01-13T16:40:39.202Z,55.30
2018-01-13T16:43:07.231Z,55.30
2018-01-13T16:45:35.242Z,55.30
2018-01-13T16:48:03.274Z,55.10
2018-01-13T16:50:31.284Z,55.10
2018-01-13T16:52:59.321Z,55.10
2018-01-13T16:55:27.330Z,55.10
2018-01-13T16:57:55.355Z,55.00
2018-01-13T17:00:23.359Z,55.00
2018-01-13T17:02:51.430Z,55.00
2018-01-13T17:05:19.473Z,54.90
2018-01-13T17:07:47.470Z,54.90
2018-01-13T17:10:15.487Z,54.90
2018-01-13T17:12:43.510Z,54.90
2018-01-13T17:15:12.308Z,54.80
2018-01-13T17:17:40.301Z,54.80
2018-01-13T17:20:09.187Z,54.80
2018-01-13T17:22:38.024Z,54.80
2018-01-13T17:25:06.041Z,54.80
2018-01-13T17:27:34.054Z,54.80
2018-01-13T17:30:02.098Z,54.80
2018-01-13T17:32:30.865Z,54.70
2018-01-13T17:34:58.897Z,54.70
2018-01-13T17:37:26.929Z,54.70
2018-01-13T17:39:55.759Z,54.80
2018-01-13T17:42:24.574Z,55.70
2018-01-13T17:44:52.601Z,54.80
2018-01-13T17:47:20.630Z,55.60
2018-01-13T17:49:48.670Z,55.60
2018-01-13T17:52:16.687Z,55.70
2018-01-13T17:54:45.501Z,55.70
2018-01-13T17:57:13.471Z,55.70
2018-01-13T17:59:41.498Z,55.60
2018-01-13T18:02:09.533Z,55.70
2018-01-13T18:04:37.526Z,55.70
2018-01-13T18:07:05.547Z,55.60
2018-01-13T18:09:33.609Z,55.60
2018-01-13T18:12:01.690Z,55.60
2018-01-13T18:14:29.689Z,55.70
2018-01-13T18:16:58.475Z,55.70
2018-01-13T18:19:26.506Z,55.70
2018-01-13T18:21:54.635Z,55.60
2018-01-13T18:24:22.665Z,55.60
2018-01-13T18:26:50.690Z,55.60
2018-01-13T18:29:18.729Z,55.60
2018-01-13T18:31:46.723Z,55.60
2018-01-13T18:34:14.779Z,55.60
2018-01-13T18:36:42.798Z,55.50
2018-01-13T18:39:10.818Z,55.50
2018-01-13T18:41:38.845Z,55.50
2018-01-13T18:44:06.843Z,55.60
2018-01-13T18:46:34.862Z,55.60
2018-01-13T18:49:03.639Z,55.60
2018-01-13T18:51:32.424Z,55.50
2018-01-13T18:54:01.219Z,56.20
2018-01-13T18:56:29.987Z,55.60
2018-01-13T18:58:57.990Z,55.60
2018-01-13T19:01:26.002Z,55.60
2018-01-13T19:03:53.986Z,55.60
2018-01-13T19:06:21.999Z,55.70
2018-01-13T19:08:50.007Z,55.60
2018-01-13T19:11:18.002Z,55.70
2018-01-13T19:13:46.050Z,55.60
2018-01-13T19:16:14.075Z,55.60
2018-01-13T19:18:42.861Z,55.70
2018-01-13T19:21:11.633Z,55.70
2018-01-13T19:23:39.666Z,55.70
2018-01-13T19:26:07.656Z,55.70
2018-01-13T19:28:35.674Z,55.70
2018-01-13T19:31:03.697Z,55.70
2018-01-13T19:33:31.761Z,55.60
2018-01-13T19:35:59.748Z,55.70
2018-01-13T19:38:27.753Z,55.60
2018-01-13T19:40:55.754Z,55.90
2018-01-13T19:43:23.741Z,55.60
2018-01-13T19:45:51.770Z,55.60
2018-01-13T19:48:19.865Z,55.60
2018-01-13T19:50:47.885Z,55.60
2018-01-13T19:53:16.664Z,55.60
2018-01-13T19:55:45.446Z,55.60
2018-01-13T19:58:13.465Z,55.60
2018-01-13T20:00:41.484Z,55.60
2018-01-13T20:03:09.495Z,55.60
2018-01-13T20:05:37.528Z,56.10
2018-01-13T20:08:06.312Z,55.70
2018-01-13T20:10:34.314Z,55.70
2018-01-13T20:13:02.297Z,55.60
2018-01-13T20:15:30.302Z,55.70
2018-01-13T20:17:58.311Z,55.60
2018-01-13T20:20:27.055Z,55.70
2018-01-13T20:22:55.074Z,55.70
2018-01-13T20:25:23.078Z,55.70
2018-01-13T20:27:51.087Z,55.70
2018-01-13T20:30:19.130Z,55.70
2018-01-13T20:32:47.162Z,55.70
2018-01-13T20:35:15.185Z,55.70
2018-01-13T20:37:43.205Z,55.70
2018-01-13T20:40:11.209Z,55.80
2018-01-13T20:42:39.268Z,55.80
2018-01-13T20:45:07.306Z,55.70
2018-01-13T20:47:35.327Z,55.80
2018-01-13T20:50:03.347Z,55.80
2018-01-13T20:52:31.416Z,55.80
2018-01-13T20:54:59.412Z,55.80
2018-01-13T20:57:27.394Z,55.80
2018-01-13T20:59:55.398Z,55.80
2018-01-13T21:02:23.414Z,55.90
2018-01-13T21:04:51.417Z,55.90
2018-01-13T21:07:19.454Z,55.90
2018-01-13T21:09:47.465Z,55.90
2018-01-13T21:12:15.496Z,55.90
2018-01-13T21:14:43.519Z,56.00
2018-01-13T21:17:11.535Z,56.00
2018-01-13T21:19:39.574Z,56.00
2018-01-13T21:22:08.326Z,56.00
2018-01-13T21:24:36.370Z,56.00
2018-01-13T21:27:04.381Z,56.00
2018-01-13T21:29:32.395Z,56.00
2018-01-13T21:32:00.431Z,56.10
2018-01-13T21:34:29.216Z,56.60
2018-01-13T21:36:57.989Z,56.10
2018-01-13T21:39:25.989Z,56.10
2018-01-13T21:41:54.751Z,56.10
2018-01-13T21:44:22.766Z,56.10
2018-01-13T21:46:50.729Z,56.00
2018-01-13T21:49:18.727Z,56.10
2018-01-13T21:51:46.762Z,56.10
2018-01-13T21:54:14.747Z,56.10
2018-01-13T21:56:42.735Z,56.10
2018-01-13T21:59:10.740Z,56.10
2018-01-13T22:01:38.809Z,56.10
2018-01-13T22:04:06.828Z,56.10
2018-01-13T22:06:34.885Z,56.10
2018-01-13T22:09:04.870Z,56.10
2018-01-13T22:11:32.874Z,56.20
2018-01-13T22:14:00.898Z,56.80
2018-01-13T22:16:28.934Z,56.20
2018-01-13T22:18:56.949Z,56.20
2018-01-13T22:21:24.927Z,56.20
2018-01-13T22:23:53.722Z,56.20
2018-01-13T22:26:22.501Z,56.20
2018-01-13T22:28:51.250Z,56.20
2018-01-13T22:31:19.248Z,56.20
2018-01-13T22:33:47.254Z,56.20
2018-01-13T22:36:15.301Z,56.20
2018-01-13T22:38:44.076Z,56.30
2018-01-13T22:41:12.101Z,56.30
2018-01-13T22:43:40.138Z,56.50
2018-01-13T22:46:08.941Z,56.30
2018-01-13T22:48:36.926Z,56.30
2018-01-13T22:51:04.954Z,56.30
2018-01-13T22:53:33.758Z,56.40
2018-01-13T22:56:01.796Z,56.40
2018-01-13T22:58:29.827Z,56.40
2018-01-13T23:00:57.818Z,56.40
2018-01-13T23:03:25.849Z,56.40
2018-01-13T23:05:53.870Z,56.40
2018-01-13T23:08:21.894Z,56.40
2018-01-13T23:10:49.901Z,56.40
2018-01-13T23:13:17.928Z,56.40
2018-01-13T23:15:45.998Z,56.50
2018-01-13T23:18:13.992Z,56.50
2018-01-13T23:20:42.013Z,56.50
2018-01-13T23:23:10.777Z,56.50
2018-01-13T23:25:38.785Z,56.50
2018-01-13T23:28:07.567Z,56.50
2018-01-13T23:30:36.361Z,56.50
2018-01-13T23:33:04.355Z,56.50
2018-01-13T23:35:32.377Z,56.50
2018-01-13T23:38:00.388Z,56.60
2018-01-13T23:40:28.471Z,56.50
2018-01-13T23:42:56.482Z,56.60
2018-01-13T23:45:24.475Z,56.60
2018-01-13T23:47:53.273Z,56.70
2018-01-13T23:50:21.314Z,56.70
2018-01-13T23:52:49.334Z,56.60
2018-01-13T23:55:17.327Z,56.60
2018-01-13T23:57:45.322Z,56.70
